Time;durP1;ratioP1;P1;durP2;ratioP2;P2;SDS_P1;SDS_P2;PMS_P1;PMS_P2;Temp;Humidity;BMP_temperature;BMP_pressure;BME280_temperature;BME280_humidity;BME280_pressure;Samples;Min_cycle;Max_cycle;Signal;HPM_P1;HPM_P2
2022/12/18 00:01:32;;;;;;;48.30;32.80;;;-5.50;99.90;;;;;;4996382;28;20456;-77
2022/12/18 00:04:02;;;;;;;43.47;32.37;;;-5.60;99.90;;;;;;4997471;28;20930;-77
2022/12/18 00:06:35;;;;;;;48.50;33.57;;;-5.60;99.90;;;;;;4996269;28;20981;-77
2022/12/18 00:09:05;;;;;;;50.77;33.23;;;-5.50;99.90;;;;;;4997688;28;20443;-77
2022/12/18 00:11:33;;;;;;;46.90;32.60;;;-5.60;99.90;;;;;;4997307;28;20444;-77
2022/12/18 00:14:01;;;;;;;45.13;32.90;;;-5.60;99.90;;;;;;4995694;28;20472;-77
2022/12/18 00:16:32;;;;;;;50.03;32.40;;;-5.60;99.90;;;;;;4997327;28;20444;-77
2022/12/18 00:19:02;;;;;;;43.37;29.97;;;-5.60;99.90;;;;;;4995910;28;20449;-76
2022/12/18 00:21:32;;;;;;;45.97;31.07;;;-5.60;99.90;;;;;;4995820;28;20871;-77
2022/12/18 00:24:00;;;;;;;41.57;30.50;;;-5.60;99.90;;;;;;4997225;28;20443;-77
2022/12/18 00:26:32;;;;;;;51.20;34.90;;;-5.60;99.90;;;;;;4996080;28;20978;-76
2022/12/18 00:29:05;;;;;;;41.77;30.37;;;-5.60;99.90;;;;;;4995749;28;20452;-77
2022/12/18 00:31:33;;;;;;;42.47;32.07;;;-5.60;99.90;;;;;;4995723;28;20538;-77
2022/12/18 00:34:02;;;;;;;45.40;33.03;;;-5.60;99.90;;;;;;4995477;28;20558;-77
2022/12/18 00:36:33;;;;;;;48.27;34.60;;;-5.60;99.90;;;;;;4995452;28;20457;-77
2022/12/18 00:39:03;;;;;;;41.43;31.83;;;-5.70;99.90;;;;;;4995714;28;20452;-77
2022/12/18 00:44:19;;;;;;;45.17;32.23;;;-5.70;99.90;;;;;;4994552;28;20473;-77
2022/12/18 00:46:48;;;;;;;44.40;31.10;;;-5.70;99.90;;;;;;4994758;28;20539;-77
2022/12/18 00:49:18;;;;;;;42.73;31.57;;;-5.70;99.90;;;;;;4994474;28;20879;-77
2022/12/18 00:51:47;;;;;;;44.17;30.70;;;-5.70;99.90;;;;;;4994209;28;20452;-77
2022/12/18 00:54:16;;;;;;;41.03;30.80;;;-5.70;99.90;;;;;;4995001;28;20849;-77
2022/12/18 00:56:45;;;;;;;48.50;31.80;;;-5.70;99.90;;;;;;4996348;28;20818;-77
2022/12/18 00:59:18;;;;;;;42.97;30.10;;;-5.70;99.90;;;;;;4995139;28;20444;-77
2022/12/18 01:01:48;;;;;;;41.93;31.27;;;-5.70;99.90;;;;;;4994964;28;20448;-77
2022/12/18 01:04:16;;;;;;;38.10;30.83;;;-5.70;99.90;;;;;;4994825;28;20481;-77
2022/12/18 01:06:46;;;;;;;43.93;30.93;;;-5.80;99.90;;;;;;4995616;28;20452;-78
2022/12/18 01:09:14;;;;;;;46.60;34.10;;;-5.80;99.90;;;;;;4995874;28;20449;-77
2022/12/18 01:11:43;;;;;;;45.07;32.73;;;-5.80;99.90;;;;;;4995419;28;20452;-77
2022/12/18 01:14:13;;;;;;;46.27;30.90;;;-5.80;99.90;;;;;;4993907;28;20484;-77
2022/12/18 01:16:41;;;;;;;40.00;29.80;;;-5.80;99.90;;;;;;4988810;28;20484;-77
2022/12/18 01:19:10;;;;;;;43.30;32.43;;;-5.80;99.90;;;;;;4995083;28;20950;-77
2022/12/18 01:21:38;;;;;;;47.67;34.27;;;-5.80;99.90;;;;;;4994944;28;20460;-77
2022/12/18 01:24:07;;;;;;;42.47;30.83;;;-5.80;99.90;;;;;;4994819;28;20487;-77
2022/12/18 01:26:36;;;;;;;42.90;32.30;;;-5.80;99.90;;;;;;4996524;28;20881;-78
2022/12/18 01:29:04;;;;;;;38.80;29.20;;;-5.80;99.90;;;;;;4997494;28;20453;-78
2022/12/18 01:31:34;;;;;;;39.70;31.37;;;-5.80;99.90;;;;;;4998408;28;20459;-77
2022/12/18 01:34:04;;;;;;;36.37;28.83;;;-5.90;99.90;;;;;;4996146;28;20629;-78
2022/12/18 01:36:34;;;;;;;37.87;30.30;;;-5.90;99.90;;;;;;4997633;28;20458;-78
2022/12/18 01:39:04;;;;;;;43.53;32.47;;;-5.90;99.90;;;;;;4996357;28;20482;-77
2022/12/18 01:45:02;;;;;;;41.50;31.07;;;-5.90;99.90;;;;;;4994252;28;21104;-77
2022/12/18 01:47:37;;;;;;;44.50;30.90;;;-5.90;99.90;;;;;;4952051;28;20462;-77
2022/12/18 01:50:10;;;;;;;40.87;30.00;;;-5.90;99.90;;;;;;4998895;28;20447;-78
2022/12/18 01:52:42;;;;;;;43.50;32.97;;;-5.90;99.90;;;;;;4998985;28;20452;-77
2022/12/18 01:55:11;;;;;;;46.20;31.40;;;-5.90;99.90;;;;;;4997860;28;20851;-77
2022/12/18 01:57:41;;;;;;;38.60;29.53;;;-5.90;99.90;;;;;;4994761;28;20459;-76
2022/12/18 02:00:15;;;;;;;39.43;30.80;;;-6.00;99.90;;;;;;4993610;28;20460;-76
2022/12/18 02:02:46;;;;;;;40.00;31.03;;;-5.90;99.90;;;;;;4994327;28;20471;-76
2022/12/18 02:05:19;;;;;;;42.37;31.20;;;-6.00;99.90;;;;;;4991981;28;20588;-78
2022/12/18 02:08:04;;;;;;;39.50;31.80;;;-6.00;99.90;;;;;;4974827;28;20457;-76
2022/12/18 02:10:38;;;;;;;35.70;29.50;;;-6.00;99.90;;;;;;4974699;28;20448;-77
2022/12/18 02:13:14;;;;;;;40.03;30.57;;;-6.00;99.90;;;;;;4974879;28;20489;-78
2022/12/18 02:15:52;;;;;;;39.50;31.23;;;-6.00;99.90;;;;;;4975822;28;20902;-76
2022/12/18 02:18:25;;;;;;;42.87;34.30;;;-6.00;99.90;;;;;;4974057;28;20448;-78
2022/12/18 02:21:01;;;;;;;44.10;31.73;;;-6.00;99.90;;;;;;4974539;28;20456;-78
2022/12/18 02:23:45;;;;;;;40.50;31.33;;;-6.10;99.90;;;;;;4978295;28;20449;-78
2022/12/18 02:26:20;;;;;;;40.80;30.13;;;-6.10;99.90;;;;;;4978130;28;20958;-78
2022/12/18 02:28:56;;;;;;;39.97;30.50;;;-6.10;99.90;;;;;;4977591;28;20472;-77
2022/12/18 02:31:29;;;;;;;36.27;29.80;;;-6.10;99.90;;;;;;4977825;28;20452;-78
2022/12/18 02:34:03;;;;;;;39.73;28.80;;;-6.10;99.90;;;;;;4974639;28;20462;-76
2022/12/18 02:36:41;;;;;;;40.27;30.20;;;-6.10;99.90;;;;;;4973959;28;20850;-76
2022/12/18 02:39:13;;;;;;;43.40;32.20;;;-6.10;99.90;;;;;;4975956;28;20436;-76
2022/12/18 02:41:53;;;;;;;38.03;29.23;;;-6.10;99.90;;;;;;4974638;28;20457;-78
2022/12/18 02:44:24;;;;;;;39.50;31.80;;;-6.20;99.90;;;;;;4974959;28;20480;-76
2022/12/18 02:46:55;;;;;;;40.63;31.33;;;-6.20;99.90;;;;;;4973504;28;20453;-77
2022/12/18 02:49:32;;;;;;;37.03;28.00;;;-6.20;99.90;;;;;;4973406;28;20892;-76
2022/12/18 02:52:13;;;;;;;37.93;28.80;;;-6.20;99.90;;;;;;4973544;28;20492;-78
2022/12/18 02:54:56;;;;;;;36.20;28.40;;;-6.20;99.90;;;;;;4974453;28;20509;-76
2022/12/18 02:57:36;;;;;;;35.67;28.70;;;-6.20;99.90;;;;;;4991626;28;20554;-76
2022/12/18 03:00:08;;;;;;;39.60;28.03;;;-6.20;99.90;;;;;;4992995;28;20448;-77
2022/12/18 03:02:44;;;;;;;35.60;29.17;;;-6.20;99.90;;;;;;4992598;28;20488;-76
2022/12/18 03:05:17;;;;;;;34.40;28.80;;;-6.20;99.90;;;;;;4994068;28;20562;-78
2022/12/18 03:07:51;;;;;;;38.63;30.33;;;-6.30;99.90;;;;;;4992583;28;20540;-76
2022/12/18 03:10:24;;;;;;;36.87;29.17;;;-6.30;99.90;;;;;;4997030;28;20499;-76
2022/12/18 03:13:00;;;;;;;36.70;29.17;;;-6.30;99.90;;;;;;4996656;28;20468;-75
2022/12/18 03:15:34;;;;;;;34.67;27.20;;;-6.30;99.90;;;;;;4996460;28;20471;-75
2022/12/18 03:18:15;;;;;;;33.90;26.73;;;-6.30;99.90;;;;;;4996693;28;20444;-75
2022/12/18 03:20:46;;;;;;;35.70;29.57;;;-6.30;99.90;;;;;;4996660;28;20448;-75
2022/12/18 03:23:25;;;;;;;36.23;27.40;;;-6.40;99.90;;;;;;4996397;28;20495;-75
2022/12/18 03:25:56;;;;;;;35.97;26.80;;;-6.40;99.90;;;;;;4996385;28;20500;-75
2022/12/18 03:28:31;;;;;;;31.60;25.83;;;-6.40;99.90;;;;;;4997108;28;20795;-75
2022/12/18 03:31:05;;;;;;;31.87;27.03;;;-6.40;99.90;;;;;;4996331;28;20486;-75
2022/12/18 03:33:40;;;;;;;34.70;28.10;;;-6.40;99.90;;;;;;4997601;28;20439;-75
2022/12/18 03:36:09;;;;;;;34.80;25.97;;;-6.40;99.90;;;;;;4996254;28;20490;-75
2022/12/18 03:38:38;;;;;;;34.70;26.03;;;-6.40;99.90;;;;;;4996578;28;20547;-75
2022/12/18 03:41:17;;;;;;;30.80;24.07;;;-6.40;99.90;;;;;;4996640;28;20444;-75
2022/12/18 03:44:13;;;;;;;33.00;25.00;;;-6.40;99.90;;;;;;4997861;28;20472;-76
2022/12/18 03:46:54;;;;;;;31.33;25.70;;;-6.40;99.90;;;;;;5001525;28;20964;-76
2022/12/18 03:49:27;;;;;;;38.63;25.67;;;-6.50;99.90;;;;;;5002506;28;20514;-77
2022/12/18 03:52:03;;;;;;;31.87;23.80;;;-6.50;99.90;;;;;;5001895;28;20498;-77
2022/12/18 03:54:34;;;;;;;27.90;24.20;;;-6.50;99.90;;;;;;5002661;28;20569;-77
2022/12/18 03:57:15;;;;;;;34.40;24.00;;;-6.50;99.90;;;;;;5002420;28;20455;-77
2022/12/18 03:59:47;;;;;;;29.10;22.37;;;-6.50;99.90;;;;;;5003058;28;20486;-77
2022/12/18 04:02:23;;;;;;;28.30;22.47;;;-6.50;99.90;;;;;;5005961;28;20483;-77
2022/12/18 04:04:54;;;;;;;30.97;24.03;;;-6.50;99.90;;;;;;5003855;28;20498;-76
2022/12/18 04:07:24;;;;;;;30.03;24.27;;;-6.50;99.90;;;;;;5004415;28;20542;-76
2022/12/18 04:09:56;;;;;;;28.23;22.97;;;-6.50;99.90;;;;;;4998464;28;20476;-76
2022/12/18 04:12:26;;;;;;;28.93;23.40;;;-6.50;99.90;;;;;;4996287;28;20543;-76
2022/12/18 04:14:55;;;;;;;31.37;23.93;;;-6.50;99.90;;;;;;4995747;28;20916;-76
2022/12/18 04:17:24;;;;;;;31.03;24.70;;;-6.60;99.90;;;;;;4995765;28;20452;-76
2022/12/18 04:19:52;;;;;;;28.57;23.13;;;-6.60;99.90;;;;;;4995346;28;20468;-75
2022/12/18 04:22:21;;;;;;;29.70;22.60;;;-6.60;99.90;;;;;;4995480;28;20445;-75
2022/12/18 04:24:54;;;;;;;27.70;21.63;;;-6.60;99.90;;;;;;4995664;28;20887;-76
2022/12/18 04:27:30;;;;;;;26.50;21.87;;;-6.60;99.90;;;;;;4995356;28;20455;-75
2022/12/18 04:30:01;;;;;;;24.37;17.67;;;-6.60;99.90;;;;;;4996538;28;20437;-76
2022/12/18 04:32:31;;;;;;;27.83;23.43;;;-6.60;99.90;;;;;;4995505;28;20454;-75
2022/12/18 04:35:00;;;;;;;30.20;23.90;;;-6.60;99.90;;;;;;4995098;28;20893;-76
2022/12/18 04:37:28;;;;;;;26.30;22.97;;;-6.60;99.90;;;;;;4994050;28;20503;-75
2022/12/18 04:39:57;;;;;;;34.80;22.50;;;-6.60;99.90;;;;;;4995182;28;20455;-75
2022/12/18 04:42:33;;;;;;;28.50;22.57;;;-6.60;99.90;;;;;;4995034;28;20527;-75
2022/12/18 04:45:02;;;;;;;33.37;23.10;;;-6.70;99.90;;;;;;4996496;28;20472;-76
2022/12/18 04:47:32;;;;;;;28.57;22.57;;;-6.70;99.90;;;;;;4995097;28;20810;-76
2022/12/18 04:50:00;;;;;;;27.47;22.73;;;-6.70;99.90;;;;;;4994842;28;20463;-75
2022/12/18 04:52:28;;;;;;;28.23;22.93;;;-6.70;99.90;;;;;;4994854;28;20864;-76
2022/12/18 04:54:59;;;;;;;28.27;22.20;;;-6.70;99.90;;;;;;4995945;28;20479;-76
2022/12/18 04:57:27;;;;;;;30.63;22.20;;;-6.70;99.90;;;;;;4996269;28;20802;-76
2022/12/18 04:59:55;;;;;;;27.83;20.97;;;-6.70;99.90;;;;;;4994610;28;20981;-76
2022/12/18 05:02:25;;;;;;;28.53;21.20;;;-6.70;99.90;;;;;;4996204;28;20436;-75
2022/12/18 05:04:53;;;;;;;28.87;22.77;;;-6.70;99.90;;;;;;4994779;28;20519;-76
2022/12/18 05:07:21;;;;;;;27.23;21.20;;;-6.70;99.90;;;;;;4994610;28;20449;-75
2022/12/18 05:09:49;;;;;;;25.40;21.70;;;-6.70;99.90;;;;;;4995779;28;20940;-75
2022/12/18 05:12:17;;;;;;;26.80;21.13;;;-6.80;99.90;;;;;;4994529;28;20503;-76
2022/12/18 05:14:46;;;;;;;23.80;19.92;;;-6.80;99.90;;;;;;4994309;28;20925;-75
2022/12/18 05:17:14;;;;;;;27.63;20.57;;;-6.80;99.90;;;;;;4994331;28;20213;-75
2022/12/18 05:19:43;;;;;;;25.47;22.13;;;-6.80;99.90;;;;;;4994271;28;20453;-76
2022/12/18 05:22:12;;;;;;;27.10;21.20;;;-6.80;99.90;;;;;;4994149;28;20971;-75
2022/12/18 05:24:40;;;;;;;25.13;21.43;;;-6.80;99.90;;;;;;4995235;28;21002;-77
2022/12/18 05:27:08;;;;;;;25.73;20.63;;;-6.90;99.90;;;;;;4993148;28;20462;-77
2022/12/18 05:29:36;;;;;;;27.47;21.10;;;-6.90;99.90;;;;;;4994001;28;20961;-76
2022/12/18 05:32:05;;;;;;;28.37;20.37;;;-6.90;99.90;;;;;;4994860;28;20443;-75
2022/12/18 05:34:33;;;;;;;29.13;21.60;;;-6.90;99.90;;;;;;4993892;28;20840;-76
2022/12/18 05:37:03;;;;;;;24.50;19.47;;;-6.90;99.90;;;;;;4993645;28;20489;-77
2022/12/18 05:39:31;;;;;;;22.70;19.00;;;-6.90;99.90;;;;;;4993995;28;20460;-77
2022/12/18 05:41:59;;;;;;;27.83;19.87;;;-6.90;99.90;;;;;;4994043;28;20205;-76
2022/12/18 05:44:27;;;;;;;26.63;20.43;;;-6.90;99.90;;;;;;4993945;28;20469;-74
2022/12/18 05:46:55;;;;;;;26.77;20.93;;;-6.90;99.90;;;;;;4995382;28;20447;-75
2022/12/18 05:49:23;;;;;;;23.50;19.07;;;-6.90;99.90;;;;;;4993726;28;20456;-76
2022/12/18 05:51:51;;;;;;;23.10;19.20;;;-7.00;99.90;;;;;;4993864;28;20448;-75
2022/12/18 05:54:21;;;;;;;24.37;20.50;;;-7.00;99.90;;;;;;4994437;28;20981;-75
2022/12/18 05:56:49;;;;;;;24.33;19.10;;;-7.00;99.90;;;;;;4995032;28;20472;-76
2022/12/18 05:59:17;;;;;;;23.07;18.17;;;-7.00;99.90;;;;;;4994943;28;20443;-75
2022/12/18 06:01:46;;;;;;;24.40;18.57;;;-7.00;99.90;;;;;;4993505;28;20464;-76
2022/12/18 06:04:14;;;;;;;24.43;19.77;;;-7.00;99.90;;;;;;4993574;28;20468;-75
2022/12/18 06:06:42;;;;;;;24.30;17.90;;;-7.00;99.90;;;;;;4993488;28;20448;-75
2022/12/18 06:09:11;;;;;;;21.02;16.92;;;-7.00;99.90;;;;;;4994753;28;20447;-75
2022/12/18 06:11:41;;;;;;;22.67;18.63;;;-7.00;99.90;;;;;;4995002;28;20198;-75
2022/12/18 06:14:11;;;;;;;23.77;18.63;;;-7.00;99.90;;;;;;4993777;28;20544;-76
2022/12/18 06:16:39;;;;;;;23.77;19.73;;;-7.00;99.90;;;;;;4992185;28;20482;-76
2022/12/18 06:19:07;;;;;;;25.30;18.40;;;-7.10;99.90;;;;;;4993170;28;20451;-76
2022/12/18 06:21:35;;;;;;;27.27;19.77;;;-7.10;99.90;;;;;;4993196;28;20800;-75
2022/12/18 06:24:03;;;;;;;23.70;18.03;;;-7.10;99.90;;;;;;4994455;28;20659;-75
2022/12/18 06:26:32;;;;;;;21.80;18.20;;;-7.10;99.90;;;;;;4993309;28;20454;-77
2022/12/18 06:29:01;;;;;;;22.50;17.13;;;-7.10;99.90;;;;;;4994797;28;20682;-75
2022/12/18 06:31:29;;;;;;;18.95;16.13;;;-7.10;99.90;;;;;;4994282;28;20499;-75
2022/12/18 06:33:57;;;;;;;22.60;18.37;;;-7.10;99.90;;;;;;4993004;28;20302;-76
2022/12/18 06:36:26;;;;;;;22.17;18.17;;;-7.20;99.90;;;;;;4994173;28;20570;-76
2022/12/18 06:38:57;;;;;;;21.38;16.50;;;-7.10;99.90;;;;;;4993000;28;20827;-75
2022/12/18 06:41:26;;;;;;;19.17;16.20;;;-7.10;99.90;;;;;;4994784;28;20209;-75
2022/12/18 06:43:54;;;;;;;22.48;17.88;;;-7.10;99.90;;;;;;4993256;28;20193;-75
2022/12/18 06:46:28;;;;;;;24.27;17.75;;;-7.10;99.90;;;;;;4994413;28;20528;-76
2022/12/18 06:48:56;;;;;;;22.45;17.73;;;-7.10;99.90;;;;;;4993040;28;20208;-75
2022/12/18 06:51:26;;;;;;;23.30;17.70;;;-7.10;99.90;;;;;;4992880;28;20661;-76
2022/12/18 06:53:54;;;;;;;24.75;19.58;;;-7.10;99.90;;;;;;4994419;28;20424;-76
2022/12/18 06:56:22;;;;;;;23.92;20.10;;;-7.20;99.90;;;;;;4992741;28;20220;-75
2022/12/18 06:58:50;;;;;;;32.33;24.15;;;-7.20;99.90;;;;;;4993025;28;20204;-75
2022/12/18 07:01:19;;;;;;;33.53;24.70;;;-7.10;99.90;;;;;;4994258;28;20213;-75
2022/12/18 07:03:52;;;;;;;24.92;20.42;;;-7.20;99.90;;;;;;4993843;28;20824;-76
2022/12/18 07:06:22;;;;;;;20.60;17.20;;;-7.20;99.90;;;;;;4992539;28;20570;-77
2022/12/18 07:08:51;;;;;;;27.33;18.35;;;-7.20;99.90;;;;;;4992767;28;20452;-77
2022/12/18 07:11:20;;;;;;;21.17;16.87;;;-7.20;99.90;;;;;;4994266;28;20282;-77
2022/12/18 07:13:48;;;;;;;22.88;17.35;;;-7.20;99.90;;;;;;4992751;28;20458;-75
2022/12/18 07:16:18;;;;;;;23.37;17.37;;;-7.20;99.90;;;;;;4992615;28;20217;-76
2022/12/18 07:18:55;;;;;;;17.53;15.70;;;-7.20;99.90;;;;;;4992639;28;20444;-76
2022/12/18 07:21:25;;;;;;;23.35;18.38;;;-7.20;99.90;;;;;;4993357;28;20828;-75
2022/12/18 07:23:53;;;;;;;19.35;17.00;;;-7.20;99.90;;;;;;4994131;28;20200;-75
2022/12/18 07:26:22;;;;;;;23.63;18.67;;;-7.20;99.90;;;;;;4994060;28;20200;-77
2022/12/18 07:28:51;;;;;;;20.63;15.73;;;-7.20;99.90;;;;;;4993982;28;20507;-76
2022/12/18 07:31:21;;;;;;;20.73;16.73;;;-7.20;99.90;;;;;;4993921;28;20482;-77
2022/12/18 07:33:50;;;;;;;23.33;16.93;;;-7.20;99.90;;;;;;4992626;28;20213;-76
2022/12/18 07:36:20;;;;;;;20.90;15.95;;;-7.20;99.90;;;;;;4992743;28;20489;-77
2022/12/18 07:38:52;;;;;;;20.52;15.60;;;-7.20;99.90;;;;;;4992851;28;20713;-77
2022/12/18 07:41:20;;;;;;;21.52;16.90;;;-7.20;99.90;;;;;;4992717;28;20202;-76
2022/12/18 07:43:49;;;;;;;20.13;15.43;;;-7.20;99.90;;;;;;4992325;28;20210;-75
2022/12/18 07:46:18;;;;;;;19.70;16.30;;;-7.20;99.90;;;;;;4992309;28;20205;-76
2022/12/18 07:48:46;;;;;;;19.55;16.88;;;-7.20;99.90;;;;;;4992318;28;20197;-75
2022/12/18 07:51:19;;;;;;;21.80;16.05;;;-7.20;99.90;;;;;;4992400;28;20716;-75
2022/12/18 07:53:48;;;;;;;21.20;16.67;;;-7.10;99.90;;;;;;4993536;28;20206;-75
2022/12/18 07:56:19;;;;;;;20.77;16.60;;;-7.10;99.90;;;;;;4994793;28;20212;-75
2022/12/18 07:58:57;;;;;;;19.15;16.10;;;-7.10;99.90;;;;;;4995893;28;20196;-75
2022/12/18 08:01:26;;;;;;;21.80;17.65;;;-7.10;99.90;;;;;;4995803;28;20208;-76
2022/12/18 08:03:54;;;;;;;21.40;17.15;;;-7.10;99.90;;;;;;4996048;28;20737;-78
2022/12/18 08:06:24;;;;;;;21.30;16.80;;;-7.10;99.90;;;;;;4996179;28;20641;-75
2022/12/18 08:08:54;;;;;;;21.77;16.80;;;-7.10;99.90;;;;;;4997024;28;20481;-78
2022/12/18 08:11:24;;;;;;;20.00;16.40;;;-7.10;99.90;;;;;;4996159;28;20261;-77
2022/12/18 08:13:53;;;;;;;20.40;17.23;;;-7.10;99.90;;;;;;4996081;28;20972;-77
2022/12/18 08:16:21;;;;;;;22.25;17.08;;;-7.10;99.90;;;;;;4996620;28;20790;-77
2022/12/18 08:18:50;;;;;;;20.67;15.18;;;-7.00;99.90;;;;;;4997403;28;20201;-78
2022/12/18 08:21:22;;;;;;;20.73;17.15;;;-7.00;99.90;;;;;;4997685;28;20203;-78
2022/12/18 08:23:54;;;;;;;23.87;18.37;;;-7.00;99.90;;;;;;4999426;28;20184;-78
2022/12/18 08:26:23;;;;;;;20.10;16.80;;;-7.00;99.90;;;;;;4997751;28;20543;-78
2022/12/18 08:28:52;;;;;;;21.75;16.40;;;-6.90;99.90;;;;;;4997632;28;20447;-78
2022/12/18 08:31:21;;;;;;;22.83;18.40;;;-6.90;99.90;;;;;;5000250;28;20203;-78
2022/12/18 08:33:52;;;;;;;19.65;15.93;;;-6.90;99.90;;;;;;4999530;28;20193;-78
2022/12/18 08:36:21;;;;;;;19.47;14.93;;;-6.90;99.90;;;;;;4996150;28;20213;-77
2022/12/18 08:38:51;;;;;;;21.52;15.07;;;-6.80;99.90;;;;;;4997135;28;20842;-76
2022/12/18 08:41:20;;;;;;;18.20;16.20;;;-6.60;99.90;;;;;;4997476;28;20274;-77
2022/12/18 08:46:39;;;;;;;19.97;16.30;;;-6.70;99.90;;;;;;4994938;28;20467;-76
2022/12/18 08:49:08;;;;;;;19.10;16.57;;;-6.70;99.90;;;;;;4995933;28;20513;-79
2022/12/18 08:51:37;;;;;;;21.25;16.13;;;-6.70;99.90;;;;;;4995916;28;20449;-75
2022/12/18 08:54:07;;;;;;;21.87;16.73;;;-6.60;99.90;;;;;;4996965;28;20228;-76
2022/12/18 08:56:35;;;;;;;20.90;17.90;;;-6.50;99.90;;;;;;5006484;28;20444;-78
2022/12/18 08:59:05;;;;;;;22.83;18.07;;;-6.40;99.90;;;;;;4997284;28;20475;-77
2022/12/18 09:01:33;;;;;;;22.75;17.45;;;-6.40;99.90;;;;;;4997533;28;20457;-77
2022/12/18 09:04:02;;;;;;;20.77;18.00;;;-6.40;99.90;;;;;;4997276;28;20225;-77
2022/12/18 09:06:32;;;;;;;23.60;18.07;;;-6.30;99.90;;;;;;5004075;28;20476;-78
2022/12/18 09:09:00;;;;;;;23.27;18.93;;;-6.30;99.90;;;;;;4997649;28;20957;-77
2022/12/18 09:11:30;;;;;;;20.93;17.60;;;-6.20;99.90;;;;;;4997468;28;21063;-78
2022/12/18 09:14:00;;;;;;;23.20;17.10;;;-6.10;99.90;;;;;;4995723;28;20958;-77
2022/12/18 09:16:30;;;;;;;21.93;18.07;;;-6.10;99.90;;;;;;4997459;28;20448;-78
2022/12/18 09:19:00;;;;;;;22.57;18.27;;;-6.00;99.90;;;;;;4996162;28;20472;-77
2022/12/18 09:21:31;;;;;;;24.07;20.07;;;-6.00;99.90;;;;;;4999399;28;20443;-77
2022/12/18 09:24:06;;;;;;;20.50;18.00;;;-5.90;99.90;;;;;;4997798;28;20481;-77
2022/12/18 09:26:37;;;;;;;24.03;18.03;;;-5.90;99.90;;;;;;4996934;28;20440;-78
2022/12/18 09:29:07;;;;;;;23.10;18.43;;;-5.80;99.90;;;;;;4996380;28;20436;-78
2022/12/18 09:31:36;;;;;;;22.93;19.30;;;-5.80;99.90;;;;;;4994332;28;20456;-77
2022/12/18 09:34:04;;;;;;;25.23;20.10;;;-5.70;99.90;;;;;;4994042;28;20798;-77
2022/12/18 09:36:33;;;;;;;23.03;19.67;;;-5.70;99.90;;;;;;4994450;28;20523;-77
2022/12/18 09:39:01;;;;;;;20.40;17.70;;;-5.60;99.90;;;;;;4994827;28;20477;-78
2022/12/18 09:41:44;;;;;;;22.97;18.80;;;-5.60;99.90;;;;;;4996176;28;20445;-78
2022/12/18 09:44:20;;;;;;;23.23;19.17;;;-5.50;99.90;;;;;;4995063;28;20546;-78
2022/12/18 09:46:54;;;;;;;23.40;18.77;;;-5.50;99.90;;;;;;4995605;28;20430;-77
2022/12/18 09:49:27;;;;;;;23.27;18.77;;;-5.50;99.90;;;;;;4993875;28;20499;-77
2022/12/18 09:51:58;;;;;;;22.97;19.00;;;-5.40;99.90;;;;;;4994059;28;20548;-79
2022/12/18 09:54:33;;;;;;;23.43;18.00;;;-5.40;99.90;;;;;;4994731;28;20472;-78
2022/12/18 09:57:03;;;;;;;22.90;18.63;;;-5.30;99.90;;;;;;4995412;28;20435;-77
2022/12/18 09:59:36;;;;;;;22.17;19.83;;;-5.20;99.90;;;;;;4995433;28;20472;-79
2022/12/18 10:02:15;;;;;;;24.67;20.03;;;-5.20;99.90;;;;;;4994471;28;20476;-77
2022/12/18 10:04:44;;;;;;;23.57;19.20;;;-5.10;99.90;;;;;;4993624;28;20921;-76
2022/12/18 10:07:20;;;;;;;22.23;18.50;;;-5.10;99.90;;;;;;4993596;28;20464;-77
2022/12/18 10:09:59;;;;;;;24.33;20.20;;;-5.00;99.90;;;;;;4993611;28;20440;-77
2022/12/18 10:12:40;;;;;;;21.27;18.97;;;-5.00;99.90;;;;;;4993472;28;20814;-77
2022/12/18 10:15:15;;;;;;;20.87;18.57;;;-4.90;99.90;;;;;;4993677;28;20850;-76
2022/12/18 10:17:48;;;;;;;22.33;19.23;;;-4.90;99.90;;;;;;4993830;28;20436;-78
2022/12/18 10:20:30;;;;;;;21.13;18.17;;;-4.80;99.90;;;;;;4995536;28;20421;-76
2022/12/18 10:23:04;;;;;;;24.17;18.03;;;-4.70;99.90;;;;;;4994515;28;20488;-78
2022/12/18 10:25:39;;;;;;;22.33;19.93;;;-4.70;99.90;;;;;;4993634;28;20483;-78
2022/12/18 10:28:14;;;;;;;22.73;20.40;;;-4.60;99.90;;;;;;4975503;28;20445;-77
2022/12/18 10:30:43;;;;;;;24.00;21.40;;;-4.60;99.90;;;;;;4975539;28;20421;-78
2022/12/18 10:33:16;;;;;;;22.90;20.00;;;-4.50;99.90;;;;;;4975837;28;20490;-79
2022/12/18 10:35:45;;;;;;;22.33;19.93;;;-4.50;99.90;;;;;;4976593;28;20472;-79
2022/12/18 10:38:27;;;;;;;21.03;18.80;;;-4.40;99.90;;;;;;4973982;28;21005;-78
2022/12/18 10:40:57;;;;;;;21.33;19.03;;;-4.40;99.90;;;;;;4973771;28;20448;-77
2022/12/18 10:43:30;;;;;;;21.90;19.73;;;-4.30;99.90;;;;;;4978002;28;20436;-78
2022/12/18 10:46:15;;;;;;;24.67;20.43;;;-4.30;99.90;;;;;;4976078;28;20474;-78
2022/12/18 10:48:55;;;;;;;24.47;21.60;;;-4.30;99.90;;;;;;4976125;28;20442;-78
2022/12/18 10:51:27;;;;;;;21.43;18.80;;;-4.20;99.90;;;;;;4975727;28;20453;-78
2022/12/18 10:54:01;;;;;;;23.53;21.03;;;-4.20;99.90;;;;;;4976611;28;20426;-77
2022/12/18 10:56:34;;;;;;;22.17;19.77;;;-4.20;99.90;;;;;;4975854;28;20445;-77
2022/12/18 10:59:05;;;;;;;22.90;20.60;;;-4.10;99.90;;;;;;4979444;28;21009;-78
2022/12/18 11:01:48;;;;;;;23.43;21.03;;;-4.10;99.90;;;;;;4978402;28;20469;-78
2022/12/18 11:04:22;;;;;;;23.70;19.70;;;-4.00;99.90;;;;;;4977774;28;20566;-77
2022/12/18 11:06:56;;;;;;;20.73;18.57;;;-4.00;99.90;;;;;;4980185;28;20437;-78
2022/12/18 11:09:26;;;;;;;22.80;20.40;;;-3.90;99.90;;;;;;4977562;28;20434;-78
2022/12/18 11:11:56;;;;;;;21.70;19.33;;;-3.90;99.90;;;;;;4974839;28;20442;-78
2022/12/18 11:14:28;;;;;;;21.40;19.03;;;-3.80;99.90;;;;;;4975023;28;20469;-77
2022/12/18 11:16:59;;;;;;;22.90;19.77;;;-3.80;99.90;;;;;;4987734;28;20457;-77
2022/12/18 11:19:53;;;;;;;23.47;18.77;;;-3.70;99.90;;;;;;4993741;28;20465;-77
2022/12/18 11:22:26;;;;;;;25.00;20.27;;;-3.70;99.90;;;;;;4994429;28;20444;-77
2022/12/18 11:24:59;;;;;;;24.30;21.70;;;-3.60;99.90;;;;;;4995440;28;20464;-77
2022/12/18 11:27:52;;;;;;;21.07;18.90;;;-3.60;99.90;;;;;;4995306;28;20448;-77
2022/12/18 11:30:28;;;;;;;25.50;20.63;;;-3.50;99.90;;;;;;4998231;28;20428;-77
2022/12/18 11:33:00;;;;;;;24.67;20.27;;;-3.50;99.90;;;;;;4997140;28;20451;-76
2022/12/18 11:35:45;;;;;;;21.40;18.93;;;-3.40;99.90;;;;;;4997091;28;20842;-77
2022/12/18 11:38:20;;;;;;;22.23;19.70;;;-3.40;99.90;;;;;;4998537;28;20476;-77
2022/12/18 11:40:54;;;;;;;22.07;19.50;;;-3.40;99.90;;;;;;4997168;28;20455;-77
2022/12/18 11:43:28;;;;;;;20.87;18.70;;;-3.30;99.90;;;;;;4997246;28;20508;-77
2022/12/18 11:46:02;;;;;;;22.33;20.13;;;-3.20;99.90;;;;;;4996523;28;20464;-77
2022/12/18 11:48:34;;;;;;;21.63;19.57;;;-3.20;99.90;;;;;;4998405;28;20443;-77
2022/12/18 11:51:06;;;;;;;23.97;20.57;;;-3.10;99.90;;;;;;4996584;28;20444;-77
2022/12/18 11:53:37;;;;;;;21.70;19.40;;;-3.00;99.90;;;;;;4996639;28;20461;-77
2022/12/18 11:56:28;;;;;;;20.73;18.50;;;-3.00;99.90;;;;;;4996767;28;20474;-77
2022/12/18 11:59:05;;;;;;;20.70;18.57;;;-2.90;99.90;;;;;;4996450;28;20460;-77
2022/12/18 12:01:47;;;;;;;20.40;18.30;;;-2.90;99.90;;;;;;4998181;28;20420;-77
2022/12/18 12:04:33;;;;;;;21.57;19.27;;;-2.80;99.90;;;;;;4997016;28;20827;-77
2022/12/18 12:07:11;;;;;;;19.83;17.70;;;-2.80;99.90;;;;;;4995274;28;20464;-76
2022/12/18 12:09:47;;;;;;;19.87;17.77;;;-2.70;99.90;;;;;;4997610;28;20432;-77
2022/12/18 12:12:28;;;;;;;18.47;16.60;;;-2.70;99.90;;;;;;4997616;28;20436;-77
2022/12/18 12:15:05;;;;;;;19.43;15.57;;;-2.70;99.90;;;;;;4997070;28;20825;-77
2022/12/18 12:17:43;;;;;;;17.40;15.60;;;-2.70;99.90;;;;;;4996587;28;20452;-77
2022/12/18 12:20:18;;;;;;;17.23;15.43;;;-2.60;99.90;;;;;;4997004;28;20456;-77
2022/12/18 12:22:54;;;;;;;16.93;15.23;;;-2.60;99.90;;;;;;4996990;28;20428;-77
2022/12/18 12:25:35;;;;;;;22.13;18.07;;;-2.60;99.90;;;;;;4995685;28;20472;-77
2022/12/18 12:28:16;;;;;;;17.47;15.77;;;-2.60;99.90;;;;;;4997200;28;20448;-76
2022/12/18 12:31:02;;;;;;;16.63;14.70;;;-2.50;99.90;;;;;;4995542;28;20444;-77
2022/12/18 12:33:41;;;;;;;19.97;16.77;;;-2.50;99.90;;;;;;4995465;28;20437;-77
2022/12/18 12:36:19;;;;;;;19.73;17.80;;;-2.50;99.90;;;;;;4996965;28;20480;-76
2022/12/18 12:38:51;;;;;;;20.37;17.53;;;-2.50;99.90;;;;;;4997024;28;20451;-77
2022/12/18 12:44:15;;;;;;;18.90;16.90;;;-2.40;99.90;;;;;;4995424;28;20484;-76
2022/12/18 12:46:44;;;;;;;19.63;16.13;;;-2.40;99.90;;;;;;4996886;28;20416;-76
2022/12/18 12:49:16;;;;;;;16.40;14.80;;;-2.40;99.90;;;;;;4995192;28;20484;-76
2022/12/18 12:51:47;;;;;;;18.70;16.90;;;-2.40;99.90;;;;;;4995479;28;20452;-76
2022/12/18 12:54:20;;;;;;;20.37;18.23;;;-2.40;99.90;;;;;;4995171;28;21101;-77
2022/12/18 12:56:55;;;;;;;18.27;16.40;;;-2.30;99.90;;;;;;4995447;28;20472;-77
2022/12/18 12:59:31;;;;;;;18.97;16.97;;;-2.30;99.90;;;;;;4996595;28;20464;-76
2022/12/18 13:02:05;;;;;;;17.63;15.70;;;-2.30;99.90;;;;;;4997255;28;20425;-77
2022/12/18 13:04:39;;;;;;;18.40;16.50;;;-2.30;99.90;;;;;;4997111;28;20466;-77